sensor_id;sensor_type;location;lat;lon;timestamp;pressure;altitude;pressure_sealevel;temperature;humidity
64679;BME280;51094;53.864;27.676;2023-04-09T00:01:20;99995.78;;;9.47;71.70
64679;BME280;51094;53.864;27.676;2023-04-09T00:03:47;100020.63;;;9.66;71.58
64679;BME280;51094;53.864;27.676;2023-04-09T00:06:14;99993.66;;;9.53;71.46
64679;BME280;51094;53.864;27.676;2023-04-09T00:08:41;99898.56;;;9.05;72.27
64679;BME280;51094;53.864;27.676;2023-04-09T00:11:07;99996.25;;;9.69;71.73
64679;BME280;51094;53.864;27.676;2023-04-09T00:13:34;100010.59;;;9.76;71.40
64679;BME280;51094;53.864;27.676;2023-04-09T00:16:06;100007.06;;;9.77;71.71
64679;BME280;51094;53.864;27.676;2023-04-09T00:18:33;100008.56;;;9.81;71.88
64679;BME280;51094;53.864;27.676;2023-04-09T00:21:00;100011.34;;;9.78;71.45
64679;BME280;51094;53.864;27.676;2023-04-09T00:23:27;100009.06;;;9.72;71.03
64679;BME280;51094;53.864;27.676;2023-04-09T00:25:53;99988.81;;;9.63;71.16
64679;BME280;51094;53.864;27.676;2023-04-09T00:28:20;99957.75;;;9.46;71.01
64679;BME280;51094;53.864;27.676;2023-04-09T00:30:47;100002.38;;;9.68;71.12
64679;BME280;51094;53.864;27.676;2023-04-09T00:33:14;99858.47;;;8.79;71.80
64679;BME280;51094;53.864;27.676;2023-04-09T00:35:41;100002.22;;;9.71;70.99
64679;BME280;51094;53.864;27.676;2023-04-09T00:38:08;100002.38;;;9.68;71.20
64679;BME280;51094;53.864;27.676;2023-04-09T00:40:34;99955.50;;;9.40;71.10
64679;BME280;51094;53.864;27.676;2023-04-09T00:43:01;99978.38;;;9.49;71.46
64679;BME280;51094;53.864;27.676;2023-04-09T00:45:29;99860.31;;;8.77;71.35
64679;BME280;51094;53.864;27.676;2023-04-09T00:47:55;99995.91;;;9.59;71.26
64679;BME280;51094;53.864;27.676;2023-04-09T00:50:22;99989.59;;;9.49;70.88
64679;BME280;51094;53.864;27.676;2023-04-09T00:52:49;99954.13;;;9.17;71.11
64679;BME280;51094;53.864;27.676;2023-04-09T00:55:17;99975.91;;;9.30;70.91
64679;BME280;51094;53.864;27.676;2023-04-09T00:57:44;99962.00;;;9.15;71.24
64679;BME280;51094;53.864;27.676;2023-04-09T01:00:11;99987.63;;;9.21;70.91
64679;BME280;51094;53.864;27.676;2023-04-09T01:02:39;100005.47;;;9.27;71.00
64679;BME280;51094;53.864;27.676;2023-04-09T01:05:07;100009.72;;;9.28;71.26
64679;BME280;51094;53.864;27.676;2023-04-09T01:10:42;100001.03;;;9.29;70.98
64679;BME280;51094;53.864;27.676;2023-04-09T01:15:44;100003.66;;;9.12;70.32
64679;BME280;51094;53.864;27.676;2023-04-09T01:18:30;99981.72;;;8.86;70.34
64679;BME280;51094;53.864;27.676;2023-04-09T01:21:05;100014.94;;;8.95;70.40
64679;BME280;51094;53.864;27.676;2023-04-09T01:27:01;100015.81;;;8.79;70.42
64679;BME280;51094;53.864;27.676;2023-04-09T01:29:50;99987.09;;;8.49;71.00
64679;BME280;51094;53.864;27.676;2023-04-09T01:32:20;99902.53;;;8.13;70.51
64679;BME280;51094;53.864;27.676;2023-04-09T01:34:48;100017.53;;;8.62;70.33
64679;BME280;51094;53.864;27.676;2023-04-09T01:37:15;100015.00;;;8.61;70.83
64679;BME280;51094;53.864;27.676;2023-04-09T01:39:44;99976.06;;;8.45;70.66
64679;BME280;51094;53.864;27.676;2023-04-09T01:42:12;99993.81;;;8.53;70.72
64679;BME280;51094;53.864;27.676;2023-04-09T01:44:41;99918.38;;;8.07;70.65
64679;BME280;51094;53.864;27.676;2023-04-09T01:47:10;99961.16;;;8.31;71.00
64679;BME280;51094;53.864;27.676;2023-04-09T01:49:39;99952.69;;;8.28;70.94
64679;BME280;51094;53.864;27.676;2023-04-09T01:52:06;99875.47;;;7.84;70.08
64679;BME280;51094;53.864;27.676;2023-04-09T01:54:34;100013.25;;;8.61;70.25
64679;BME280;51094;53.864;27.676;2023-04-09T01:57:01;99805.13;;;7.42;69.83
64679;BME280;51094;53.864;27.676;2023-04-09T01:59:27;100002.88;;;8.61;69.93
64679;BME280;51094;53.864;27.676;2023-04-09T02:02:06;100020.28;;;8.59;70.82
64679;BME280;51094;53.864;27.676;2023-04-09T02:04:39;100009.00;;;8.60;70.65
64679;BME280;51094;53.864;27.676;2023-04-09T02:07:13;100009.91;;;8.59;69.98
64679;BME280;51094;53.864;27.676;2023-04-09T02:09:40;99959.63;;;8.27;70.19
64679;BME280;51094;53.864;27.676;2023-04-09T02:12:12;99967.13;;;8.33;69.60
64679;BME280;51094;53.864;27.676;2023-04-09T02:14:40;99945.50;;;8.17;69.06
64679;BME280;51094;53.864;27.676;2023-04-09T02:17:08;99976.97;;;8.44;69.29
64679;BME280;51094;53.864;27.676;2023-04-09T02:19:46;100001.66;;;8.51;69.93
64679;BME280;51094;53.864;27.676;2023-04-09T02:22:15;100001.66;;;8.51;69.63
64679;BME280;51094;53.864;27.676;2023-04-09T02:24:42;99829.25;;;7.25;70.14
64679;BME280;51094;53.864;27.676;2023-04-09T02:27:09;99999.84;;;8.53;69.82
64679;BME280;51094;53.864;27.676;2023-04-09T02:29:38;99913.25;;;7.88;69.22
64679;BME280;51094;53.864;27.676;2023-04-09T02:32:05;99994.66;;;8.53;69.22
64679;BME280;51094;53.864;27.676;2023-04-09T02:34:32;100006.03;;;8.51;69.35
64679;BME280;51094;53.864;27.676;2023-04-09T02:36:59;99914.78;;;7.92;69.14
64679;BME280;51094;53.864;27.676;2023-04-09T02:39:25;99938.94;;;8.10;68.87
64679;BME280;51094;53.864;27.676;2023-04-09T02:41:52;100005.34;;;8.47;69.70
64679;BME280;51094;53.864;27.676;2023-04-09T02:44:19;99923.16;;;7.97;69.54
64679;BME280;51094;53.864;27.676;2023-04-09T02:46:46;100005.09;;;8.52;69.51
64679;BME280;51094;53.864;27.676;2023-04-09T02:49:14;99978.03;;;8.40;68.89
64679;BME280;51094;53.864;27.676;2023-04-09T02:51:42;99998.16;;;8.52;68.40
64679;BME280;51094;53.864;27.676;2023-04-09T02:54:09;99998.31;;;8.49;68.99
64679;BME280;51094;53.864;27.676;2023-04-09T02:56:35;99966.50;;;8.28;69.13
64679;BME280;51094;53.864;27.676;2023-04-09T02:59:02;99983.53;;;8.34;69.19
64679;BME280;51094;53.864;27.676;2023-04-09T03:01:29;99958.22;;;8.22;69.19
64679;BME280;51094;53.864;27.676;2023-04-09T03:03:56;99991.53;;;8.47;69.08
64679;BME280;51094;53.864;27.676;2023-04-09T03:06:23;99947.31;;;8.15;68.72
64679;BME280;51094;53.864;27.676;2023-04-09T03:08:50;99996.63;;;8.48;68.47
64679;BME280;51094;53.864;27.676;2023-04-09T03:11:17;99992.06;;;8.53;69.17
64679;BME280;51094;53.864;27.676;2023-04-09T03:13:43;99976.91;;;8.46;68.81
64679;BME280;51094;53.864;27.676;2023-04-09T03:16:10;99997.94;;;8.57;68.63
64679;BME280;51094;53.864;27.676;2023-04-09T03:18:37;99886.13;;;7.95;68.30
64679;BME280;51094;53.864;27.676;2023-04-09T03:21:05;99992.59;;;8.60;68.46
64679;BME280;51094;53.864;27.676;2023-04-09T03:23:35;99998.53;;;8.62;67.93
64679;BME280;51094;53.864;27.676;2023-04-09T03:26:04;99949.97;;;8.31;67.52
64679;BME280;51094;53.864;27.676;2023-04-09T03:28:42;100001.81;;;8.65;68.14
64679;BME280;51094;53.864;27.676;2023-04-09T03:31:08;99980.09;;;8.51;67.21
64679;BME280;51094;53.864;27.676;2023-04-09T03:33:38;99981.63;;;8.55;67.53
64679;BME280;51094;53.864;27.676;2023-04-09T03:36:05;100006.75;;;8.70;67.55
64679;BME280;51094;53.864;27.676;2023-04-09T03:39:02;99977.81;;;8.45;66.50
64679;BME280;51094;53.864;27.676;2023-04-09T03:41:32;100006.75;;;8.70;67.19
64679;BME280;51094;53.864;27.676;2023-04-09T03:44:03;99943.75;;;8.35;66.29
64679;BME280;51094;53.864;27.676;2023-04-09T03:46:38;100007.59;;;8.71;66.31
64679;BME280;51094;53.864;27.676;2023-04-09T03:49:07;99942.50;;;8.25;66.76
64679;BME280;51094;53.864;27.676;2023-04-09T03:51:38;100007.25;;;8.61;66.89
64679;BME280;51094;53.864;27.676;2023-04-09T03:54:06;100033.16;;;8.61;66.85
64679;BME280;51094;53.864;27.676;2023-04-09T03:56:33;99970.50;;;8.36;66.79
64679;BME280;51094;53.864;27.676;2023-04-09T03:59:01;100006.78;;;8.53;66.82
64679;BME280;51094;53.864;27.676;2023-04-09T04:01:36;99878.38;;;7.78;67.37
64679;BME280;51094;53.864;27.676;2023-04-09T04:04:02;99931.38;;;8.06;67.92
64679;BME280;51094;53.864;27.676;2023-04-09T04:06:34;99878.06;;;7.84;67.43
64679;BME280;51094;53.864;27.676;2023-04-09T04:09:22;99898.94;;;7.98;67.57
64679;BME280;51094;53.864;27.676;2023-04-09T04:11:53;100015.50;;;8.67;67.83
64679;BME280;51094;53.864;27.676;2023-04-09T04:14:24;99934.78;;;8.23;67.68
64679;BME280;51094;53.864;27.676;2023-04-09T04:16:57;99917.00;;;8.17;67.35
64679;BME280;51094;53.864;27.676;2023-04-09T04:19:27;100005.91;;;8.70;67.52
64679;BME280;51094;53.864;27.676;2023-04-09T04:21:54;99926.28;;;8.39;67.22
64679;BME280;51094;53.864;27.676;2023-04-09T04:24:22;99901.28;;;8.38;66.87
64679;BME280;51094;53.864;27.676;2023-04-09T04:26:49;99983.00;;;8.95;66.81
64679;BME280;51094;53.864;27.676;2023-04-09T04:29:18;99934.22;;;8.68;66.45
64679;BME280;51094;53.864;27.676;2023-04-09T04:31:57;100002.59;;;9.16;66.55
64679;BME280;51094;53.864;27.676;2023-04-09T04:34:29;99993.06;;;9.17;66.75
64679;BME280;51094;53.864;27.676;2023-04-09T04:37:03;100000.50;;;9.23;65.64
64679;BME280;51094;53.864;27.676;2023-04-09T04:39:31;99966.03;;;9.05;65.90
64679;BME280;51094;53.864;27.676;2023-04-09T04:42:09;99852.13;;;8.36;66.06
64679;BME280;51094;53.864;27.676;2023-04-09T04:44:36;100015.94;;;9.42;66.30
64679;BME280;51094;53.864;27.676;2023-04-09T04:47:15;100012.50;;;9.57;66.40
64679;BME280;51094;53.864;27.676;2023-04-09T04:49:42;99972.09;;;9.53;66.26
64679;BME280;51094;53.864;27.676;2023-04-09T04:52:09;100000.94;;;9.78;65.75
64679;BME280;51094;53.864;27.676;2023-04-09T04:54:38;99945.16;;;9.54;65.35
64679;BME280;51094;53.864;27.676;2023-04-09T04:57:06;99984.28;;;9.66;64.92
64679;BME280;51094;53.864;27.676;2023-04-09T04:59:39;99973.56;;;9.73;64.80
64679;BME280;51094;53.864;27.676;2023-04-09T05:02:08;99995.75;;;9.94;64.68
64679;BME280;51094;53.864;27.676;2023-04-09T05:04:56;100020.28;;;10.20;65.12
64679;BME280;51094;53.864;27.676;2023-04-09T05:07:30;100016.13;;;10.31;64.43
64679;BME280;51094;53.864;27.676;2023-04-09T05:09:58;100016.41;;;10.41;64.12
64679;BME280;51094;53.864;27.676;2023-04-09T05:12:30;100018.94;;;10.43;64.27
64679;BME280;51094;53.864;27.676;2023-04-09T05:14:58;100017.47;;;10.53;64.03
64679;BME280;51094;53.864;27.676;2023-04-09T05:17:25;100023.34;;;10.56;63.27
64679;BME280;51094;53.864;27.676;2023-04-09T05:19:52;99985.03;;;10.30;64.00
64679;BME280;51094;53.864;27.676;2023-04-09T05:22:26;100031.06;;;10.58;63.32
64679;BME280;51094;53.864;27.676;2023-04-09T05:24:53;100031.88;;;10.58;62.89
64679;BME280;51094;53.864;27.676;2023-04-09T05:27:20;100039.44;;;10.63;61.88
64679;BME280;51094;53.864;27.676;2023-04-09T05:29:54;100041.94;;;10.64;62.56
64679;BME280;51094;53.864;27.676;2023-04-09T05:32:21;100045.13;;;10.70;62.28
64679;BME280;51094;53.864;27.676;2023-04-09T05:34:48;100019.06;;;10.55;62.06
64679;BME280;51094;53.864;27.676;2023-04-09T05:37:15;100041.03;;;10.36;61.44
64679;BME280;51094;53.864;27.676;2023-04-09T05:39:47;100044.84;;;10.74;61.61
64679;BME280;51094;53.864;27.676;2023-04-09T05:42:14;100019.16;;;10.54;62.22
64679;BME280;51094;53.864;27.676;2023-04-09T05:44:51;100030.06;;;10.75;62.38
64679;BME280;51094;53.864;27.676;2023-04-09T05:47:19;100022.28;;;10.75;61.12
64679;BME280;51094;53.864;27.676;2023-04-09T05:49:56;100025.84;;;10.58;61.82
64679;BME280;51094;53.864;27.676;2023-04-09T05:52:23;100019.06;;;10.55;61.75
64679;BME280;51094;53.864;27.676;2023-04-09T05:55:21;100037.88;;;10.75;62.66
64679;BME280;51094;53.864;27.676;2023-04-09T05:58:01;100045.22;;;10.82;62.52
64679;BME280;51094;53.864;27.676;2023-04-09T06:00:28;100015.09;;;10.64;62.54
64679;BME280;51094;53.864;27.676;2023-04-09T06:02:55;100049.97;;;11.04;62.23
64679;BME280;51094;53.864;27.676;2023-04-09T06:05:22;100056.13;;;11.17;61.97
64679;BME280;51094;53.864;27.676;2023-04-09T06:07:50;100058.63;;;11.19;61.30
64679;BME280;51094;53.864;27.676;2023-04-09T06:10:17;100049.63;;;11.24;60.99
64679;BME280;51094;53.864;27.676;2023-04-09T06:12:46;99978.44;;;10.83;61.28
64679;BME280;51094;53.864;27.676;2023-04-09T06:15:13;100060.38;;;11.32;60.68
64679;BME280;51094;53.864;27.676;2023-04-09T06:17:41;100062.72;;;11.37;61.02
64679;BME280;51094;53.864;27.676;2023-04-09T06:20:08;99961.03;;;10.97;60.51
64679;BME280;51094;53.864;27.676;2023-04-09T06:22:36;100028.09;;;11.63;60.17
64679;BME280;51094;53.864;27.676;2023-04-09T06:25:03;100018.41;;;11.65;60.42
64679;BME280;51094;53.864;27.676;2023-04-09T06:27:30;100042.84;;;11.91;59.49
64679;BME280;51094;53.864;27.676;2023-04-09T06:29:57;100065.53;;;12.04;59.47
64679;BME280;51094;53.864;27.676;2023-04-09T06:32:23;100049.72;;;11.92;59.84
64679;BME280;51094;53.864;27.676;2023-04-09T06:34:50;99993.00;;;11.69;59.54
64679;BME280;51094;53.864;27.676;2023-04-09T06:37:17;100060.75;;;12.10;59.28
64679;BME280;51094;53.864;27.676;2023-04-09T06:39:44;100002.94;;;11.77;59.48
64679;BME280;51094;53.864;27.676;2023-04-09T06:42:26;100045.88;;;12.25;57.87
64679;BME280;51094;53.864;27.676;2023-04-09T06:45:05;100052.50;;;12.43;58.16
64679;BME280;51094;53.864;27.676;2023-04-09T06:47:40;100076.22;;;12.65;58.48
64679;BME280;51094;53.864;27.676;2023-04-09T06:50:11;100069.25;;;12.79;58.44
64679;BME280;51094;53.864;27.676;2023-04-09T06:52:39;100089.50;;;13.00;57.29
64679;BME280;51094;53.864;27.676;2023-04-09T06:55:06;100017.78;;;12.81;56.63
64679;BME280;51094;53.864;27.676;2023-04-09T06:57:33;99999.00;;;12.76;56.17
64679;BME280;51094;53.864;27.676;2023-04-09T07:00:00;100028.44;;;13.03;54.94
64679;BME280;51094;53.864;27.676;2023-04-09T07:02:27;100079.31;;;13.36;53.38
64679;BME280;51094;53.864;27.676;2023-04-09T07:04:54;100078.50;;;13.35;54.21
64679;BME280;51094;53.864;27.676;2023-04-09T07:07:21;99856.56;;;11.97;54.30
64679;BME280;51094;53.864;27.676;2023-04-09T07:09:52;100075.47;;;13.41;54.69
64679;BME280;51094;53.864;27.676;2023-04-09T07:12:29;100079.94;;;13.39;54.05
64679;BME280;51094;53.864;27.676;2023-04-09T07:14:57;100072.81;;;13.54;53.60
64679;BME280;51094;53.864;27.676;2023-04-09T07:17:24;100020.81;;;13.13;52.95
64679;BME280;51094;53.864;27.676;2023-04-09T07:19:51;100083.97;;;13.56;53.51
64679;BME280;51094;53.864;27.676;2023-04-09T07:22:23;100081.03;;;13.73;52.42
64679;BME280;51094;53.864;27.676;2023-04-09T07:24:50;100067.25;;;13.71;52.41
64679;BME280;51094;53.864;27.676;2023-04-09T07:27:20;100080.75;;;13.89;52.75
64679;BME280;51094;53.864;27.676;2023-04-09T07:29:47;100085.13;;;14.01;52.78
64679;BME280;51094;53.864;27.676;2023-04-09T07:32:15;100059.38;;;14.08;52.81
64679;BME280;51094;53.864;27.676;2023-04-09T07:34:44;100078.34;;;14.46;52.01
64679;BME280;51094;53.864;27.676;2023-04-09T07:37:11;100005.72;;;14.26;52.19
64679;BME280;51094;53.864;27.676;2023-04-09T07:39:38;100080.97;;;14.81;50.48
64679;BME280;51094;53.864;27.676;2023-04-09T07:42:05;100085.13;;;14.84;50.63
64679;BME280;51094;53.864;27.676;2023-04-09T07:44:36;100077.66;;;14.90;50.34
64679;BME280;51094;53.864;27.676;2023-04-09T07:47:03;99963.16;;;14.35;49.57
64679;BME280;51094;53.864;27.676;2023-04-09T07:49:31;100053.50;;;14.98;49.64
64679;BME280;51094;53.864;27.676;2023-04-09T07:51:59;100043.75;;;15.11;48.45
64679;BME280;51094;53.864;27.676;2023-04-09T07:54:26;100057.56;;;15.24;47.95
64679;BME280;51094;53.864;27.676;2023-04-09T07:56:54;100055.91;;;15.35;46.65
64679;BME280;51094;53.864;27.676;2023-04-09T07:59:22;100036.38;;;15.27;46.32
64679;BME280;51094;53.864;27.676;2023-04-09T08:01:49;100033.16;;;15.24;45.58
64679;BME280;51094;53.864;27.676;2023-04-09T08:04:16;100068.66;;;15.50;45.68
64679;BME280;51094;53.864;27.676;2023-04-09T08:06:44;99960.75;;;14.89;45.63
64679;BME280;51094;53.864;27.676;2023-04-09T08:09:17;100074.84;;;15.60;44.34
64679;BME280;51094;53.864;27.676;2023-04-09T08:11:44;100007.06;;;15.34;43.65
64679;BME280;51094;53.864;27.676;2023-04-09T08:14:13;100021.13;;;15.55;43.96
64679;BME280;51094;53.864;27.676;2023-04-09T08:16:45;100074.59;;;15.97;41.57
64679;BME280;51094;53.864;27.676;2023-04-09T08:19:14;100068.97;;;16.02;42.48
64679;BME280;51094;53.864;27.676;2023-04-09T08:21:42;100056.28;;;16.07;44.09
64679;BME280;51094;53.864;27.676;2023-04-09T08:24:12;100069.91;;;16.44;42.17
64679;BME280;51094;53.864;27.676;2023-04-09T08:26:39;100065.59;;;16.63;42.34
64679;BME280;51094;53.864;27.676;2023-04-09T08:29:07;100049.38;;;16.70;40.99
64679;BME280;51094;53.864;27.676;2023-04-09T08:31:34;99961.03;;;16.27;41.55
64679;BME280;51094;53.864;27.676;2023-04-09T08:34:04;100063.94;;;17.04;42.22
64679;BME280;51094;53.864;27.676;2023-04-09T08:36:33;100023.63;;;16.84;37.98
64679;BME280;51094;53.864;27.676;2023-04-09T08:39:01;100062.34;;;16.92;39.40
64679;BME280;51094;53.864;27.676;2023-04-09T08:41:29;100034.53;;;16.80;37.92
64679;BME280;51094;53.864;27.676;2023-04-09T08:43:57;100037.88;;;16.91;37.98
64679;BME280;51094;53.864;27.676;2023-04-09T08:46:25;99992.75;;;16.77;38.44
64679;BME280;51094;53.864;27.676;2023-04-09T08:48:53;100038.56;;;17.14;36.62
64679;BME280;51094;53.864;27.676;2023-04-09T08:51:22;100035.28;;;17.22;38.95
64679;BME280;51094;53.864;27.676;2023-04-09T08:53:59;100059.22;;;17.59;38.53
64679;BME280;51094;53.864;27.676;2023-04-09T08:56:30;100007.41;;;17.50;37.91
64679;BME280;51094;53.864;27.676;2023-04-09T08:58:56;100015.00;;;17.93;36.82
64679;BME280;51094;53.864;27.676;2023-04-09T09:01:25;100058.25;;;18.39;36.87
64679;BME280;51094;53.864;27.676;2023-04-09T09:04:00;100052.16;;;18.57;36.83
64679;BME280;51094;53.864;27.676;2023-04-09T09:06:28;100013.22;;;18.42;37.22
64679;BME280;51094;53.864;27.676;2023-04-09T09:11:45;100056.31;;;18.70;36.34
64679;BME280;51094;53.864;27.676;2023-04-09T09:14:15;100054.66;;;18.59;36.31
64679;BME280;51094;53.864;27.676;2023-04-09T09:21:57;100057.97;;;18.42;38.48
64679;BME280;51094;53.864;27.676;2023-04-09T09:24:25;100056.59;;;18.28;36.84
64679;BME280;51094;53.864;27.676;2023-04-09T09:26:52;99993.66;;;17.67;37.75
64679;BME280;51094;53.864;27.676;2023-04-09T09:29:20;100060.75;;;18.31;39.37
64679;BME280;51094;53.864;27.676;2023-04-09T09:31:49;100041.38;;;18.60;38.21
64679;BME280;51094;53.864;27.676;2023-04-09T09:34:17;100067.38;;;19.02;37.61
64679;BME280;51094;53.864;27.676;2023-04-09T09:36:45;100057.53;;;19.32;35.67
64679;BME280;51094;53.864;27.676;2023-04-09T09:39:13;100052.19;;;19.51;37.12
64679;BME280;51094;53.864;27.676;2023-04-09T09:41:40;100035.34;;;19.89;36.23
64679;BME280;51094;53.864;27.676;2023-04-09T09:44:09;100034.50;;;20.24;37.26
64679;BME280;51094;53.864;27.676;2023-04-09T09:46:38;100011.56;;;20.07;35.68
64679;BME280;51094;53.864;27.676;2023-04-09T09:49:07;100047.19;;;20.20;37.21
64679;BME280;51094;53.864;27.676;2023-04-09T09:51:38;100060.47;;;20.46;35.86
64679;BME280;51094;53.864;27.676;2023-04-09T09:54:06;99982.59;;;19.97;34.68
64679;BME280;51094;53.864;27.676;2023-04-09T09:56:37;100044.00;;;20.17;36.87
64679;BME280;51094;53.864;27.676;2023-04-09T09:59:21;100042.75;;;20.21;36.12
64679;BME280;51094;53.864;27.676;2023-04-09T10:01:58;100048.84;;;20.39;35.80
64679;BME280;51094;53.864;27.676;2023-04-09T10:04:28;99971.44;;;20.21;36.33
64679;BME280;51094;53.864;27.676;2023-04-09T10:06:55;99988.22;;;20.55;35.62
64679;BME280;51094;53.864;27.676;2023-04-09T10:09:25;100010.56;;;20.87;36.31
64679;BME280;51094;53.864;27.676;2023-04-09T10:11:54;99957.81;;;20.77;34.16
64679;BME280;51094;53.864;27.676;2023-04-09T10:14:23;99928.59;;;20.79;32.99
64679;BME280;51094;53.864;27.676;2023-04-09T10:16:51;100003.25;;;21.41;35.33
64679;BME280;51094;53.864;27.676;2023-04-09T10:19:19;100018.44;;;21.89;34.08
64679;BME280;51094;53.864;27.676;2023-04-09T10:21:53;100004.09;;;22.16;33.49
64679;BME280;51094;53.864;27.676;2023-04-09T10:24:22;100029.91;;;22.14;31.19
64679;BME280;51094;53.864;27.676;2023-04-09T10:26:53;100031.72;;;21.97;31.57
64679;BME280;51094;53.864;27.676;2023-04-09T10:29:26;100023.91;;;21.96;32.71
64679;BME280;51094;53.864;27.676;2023-04-09T10:32:21;100005.19;;;21.81;32.13
64679;BME280;51094;53.864;27.676;2023-04-09T10:34:57;99925.88;;;21.39;31.09
64679;BME280;51094;53.864;27.676;2023-04-09T10:37:27;100006.75;;;22.24;32.41
64679;BME280;51094;53.864;27.676;2023-04-09T10:39:55;100021.28;;;23.01;31.43
64679;BME280;51094;53.864;27.676;2023-04-09T10:42:29;100001.50;;;23.20;30.21
64679;BME280;51094;53.864;27.676;2023-04-09T10:45:11;99928.75;;;22.51;30.72
64679;BME280;51094;53.864;27.676;2023-04-09T10:47:41;99994.69;;;23.17;29.73
64679;BME280;51094;53.864;27.676;2023-04-09T10:50:20;99967.69;;;23.45;30.20
64679;BME280;51094;53.864;27.676;2023-04-09T10:52:56;100006.34;;;24.09;28.73
64679;BME280;51094;53.864;27.676;2023-04-09T10:57:57;99918.56;;;23.49;27.76
64679;BME280;51094;53.864;27.676;2023-04-09T11:00:24;99990.03;;;23.67;28.37
64679;BME280;51094;53.864;27.676;2023-04-09T11:05:39;100007.63;;;24.74;27.63
64679;BME280;51094;53.864;27.676;2023-04-09T11:08:12;99935.47;;;24.25;26.94
64679;BME280;51094;53.864;27.676;2023-04-09T11:10:41;99981.00;;;24.44;27.60
64679;BME280;51094;53.864;27.676;2023-04-09T11:13:12;99945.47;;;24.60;26.96
64679;BME280;51094;53.864;27.676;2023-04-09T11:15:39;100000.78;;;25.24;26.65
64679;BME280;51094;53.864;27.676;2023-04-09T11:18:07;99989.66;;;25.85;25.52
64679;BME280;51094;53.864;27.676;2023-04-09T11:20:35;99995.47;;;26.32;26.41
64679;BME280;51094;53.864;27.676;2023-04-09T11:23:02;99986.47;;;26.18;25.70
64679;BME280;51094;53.864;27.676;2023-04-09T11:25:31;100005.97;;;25.97;26.15
64679;BME280;51094;53.864;27.676;2023-04-09T11:28:01;99987.19;;;25.48;28.24
64679;BME280;51094;53.864;27.676;2023-04-09T11:30:29;99999.63;;;24.74;28.63
64679;BME280;51094;53.864;27.676;2023-04-09T11:32:56;99894.38;;;22.90;28.84
64679;BME280;51094;53.864;27.676;2023-04-09T11:35:23;99992.84;;;22.38;30.19
64679;BME280;51094;53.864;27.676;2023-04-09T11:38:16;100011.47;;;21.30;32.45
64679;BME280;51094;53.864;27.676;2023-04-09T11:40:56;99996.47;;;20.52;32.84
64679;BME280;51094;53.864;27.676;2023-04-09T11:43:23;100001.78;;;20.17;34.49
64679;BME280;51094;53.864;27.676;2023-04-09T11:45:50;99894.16;;;19.12;34.74
64679;BME280;51094;53.864;27.676;2023-04-09T11:48:17;99999.03;;;19.73;35.26
64679;BME280;51094;53.864;27.676;2023-04-09T11:50:45;100000.03;;;19.45;34.10
64679;BME280;51094;53.864;27.676;2023-04-09T11:53:20;99933.97;;;18.82;35.60
64679;BME280;51094;53.864;27.676;2023-04-09T11:55:52;99990.94;;;19.02;35.22
64679;BME280;51094;53.864;27.676;2023-04-09T11:58:24;99959.75;;;18.88;35.63
64679;BME280;51094;53.864;27.676;2023-04-09T12:00:53;100000.09;;;19.25;35.64
64679;BME280;51094;53.864;27.676;2023-04-09T12:03:27;99969.63;;;19.13;36.32
64679;BME280;51094;53.864;27.676;2023-04-09T12:05:54;99982.81;;;19.13;36.90
64679;BME280;51094;53.864;27.676;2023-04-09T12:08:22;99965.16;;;18.96;37.19
64679;BME280;51094;53.864;27.676;2023-04-09T12:10:50;99947.44;;;18.79;35.97
64679;BME280;51094;53.864;27.676;2023-04-09T12:13:20;99913.91;;;18.71;36.09
64679;BME280;51094;53.864;27.676;2023-04-09T12:15:48;99900.34;;;19.03;36.15
64679;BME280;51094;53.864;27.676;2023-04-09T12:18:15;99975.00;;;22.08;33.74
64679;BME280;51094;53.864;27.676;2023-04-09T12:20:43;99969.47;;;23.83;30.63
64679;BME280;51094;53.864;27.676;2023-04-09T12:23:12;99963.97;;;25.99;28.39
64679;BME280;51094;53.864;27.676;2023-04-09T12:25:41;99941.41;;;27.13;26.10
64679;BME280;51094;53.864;27.676;2023-04-09T12:28:11;99970.34;;;29.16;23.47
64679;BME280;51094;53.864;27.676;2023-04-09T12:30:41;99963.91;;;30.06;20.80
64679;BME280;51094;53.864;27.676;2023-04-09T12:33:08;99922.09;;;29.67;22.20
64679;BME280;51094;53.864;27.676;2023-04-09T12:35:37;99928.91;;;29.63;21.27
64679;BME280;51094;53.864;27.676;2023-04-09T12:38:07;99956.03;;;27.98;22.38
64679;BME280;51094;53.864;27.676;2023-04-09T12:40:34;99946.00;;;25.14;25.41
64679;BME280;51094;53.864;27.676;2023-04-09T12:43:02;99918.41;;;23.81;27.27
64679;BME280;51094;53.864;27.676;2023-04-09T12:45:29;99965.63;;;22.77;27.94
64679;BME280;51094;53.864;27.676;2023-04-09T12:47:57;99960.16;;;21.56;30.67
64679;BME280;51094;53.864;27.676;2023-04-09T12:50:41;99971.50;;;20.73;32.86
64679;BME280;51094;53.864;27.676;2023-04-09T12:54:18;99975.59;;;19.70;34.45
64679;BME280;51094;53.864;27.676;2023-04-09T12:56:46;99969.63;;;19.13;34.85
64679;BME280;51094;53.864;27.676;2023-04-09T12:59:13;99898.88;;;18.44;35.51
64679;BME280;51094;53.864;27.676;2023-04-09T13:01:39;99971.69;;;18.82;35.83
64679;BME280;51094;53.864;27.676;2023-04-09T13:04:09;99989.19;;;18.83;35.28
64679;BME280;51094;53.864;27.676;2023-04-09T13:06:36;99967.78;;;18.96;35.15
64679;BME280;51094;53.864;27.676;2023-04-09T13:09:03;99896.63;;;18.49;34.73
64679;BME280;51094;53.864;27.676;2023-04-09T13:11:31;99975.34;;;19.09;34.73
64679;BME280;51094;53.864;27.676;2023-04-09T13:13:57;99825.16;;;18.44;34.68
64679;BME280;51094;53.864;27.676;2023-04-09T13:16:24;99975.44;;;20.07;33.82
64679;BME280;51094;53.864;27.676;2023-04-09T13:18:51;99899.91;;;20.32;32.56
64679;BME280;51094;53.864;27.676;2023-04-09T13:21:18;99965.38;;;21.40;31.39
64679;BME280;51094;53.864;27.676;2023-04-09T13:23:45;99963.69;;;22.14;31.37